Time;durP1;ratioP1;P1;durP2;ratioP2;P2;SDS_P1;SDS_P2;PMS_P1;PMS_P2;Temp;Humidity;BMP_temperature;BMP_pressure;BME280_temperature;BME280_humidity;BME280_pressure;Samples;Min_cycle;Max_cycle;Signal;HPM_P1;HPM_P2
2022/02/18 00:02:45;;;;;;;5.50;1.48;;;;;;;5.27;70.12;99130.22;6296007;28;20042;-72
2022/02/18 00:05:47;;;;;;;4.65;1.70;;;;;;;5.29;70.07;99153.44;6297226;28;20082;-72
2022/02/18 00:08:47;;;;;;;2.42;1.00;;;;;;;5.41;69.75;99157.94;6295911;28;20209;-69
2022/02/18 00:11:48;;;;;;;3.40;1.30;;;;;;;5.49;69.61;99167.91;6297068;28;20487;-69
2022/02/18 00:14:49;;;;;;;4.25;1.80;;;;;;;5.35;69.92;99161.69;6296962;28;20123;-69
2022/02/18 00:17:53;;;;;;;3.67;1.52;;;;;;;5.20;69.87;99170.28;6295889;28;20043;-69
2022/02/18 00:20:54;;;;;;;3.80;1.35;;;;;;;5.41;69.68;99181.25;6296833;28;20498;-69
2022/02/18 00:23:55;;;;;;;2.13;1.05;;;;;;;5.47;70.37;99186.09;6296703;28;20041;-72
2022/02/18 00:26:56;;;;;;;3.58;1.50;;;;;;;5.28;70.45;99191.41;6295641;28;20072;-72
2022/02/18 00:29:57;;;;;;;5.00;1.70;;;;;;;5.16;70.93;99192.88;6296729;28;20037;-73
2022/02/18 00:32:57;;;;;;;5.68;2.55;;;;;;;5.20;71.03;99202.16;6295302;28;20055;-73
2022/02/18 00:35:58;;;;;;;1.42;0.90;;;;;;;5.16;70.06;99216.16;6294477;28;20411;-73
2022/02/18 00:38:59;;;;;;;4.60;0.95;;;;;;;5.24;71.50;99216.59;6295405;28;20036;-70
2022/02/18 00:42:00;;;;;;;1.92;1.05;;;;;;;5.14;70.74;99217.16;6296202;28;20045;-69
2022/02/18 00:45:01;;;;;;;1.15;0.70;;;;;;;5.08;70.51;99220.88;6295251;28;20127;-70
2022/02/18 00:48:05;;;;;;;4.28;1.20;;;;;;;5.20;70.78;99225.44;6262810;28;20048;-69
2022/02/18 00:51:06;;;;;;;4.45;1.10;;;;;;;5.05;71.11;99232.22;6295250;28;20052;-69
2022/02/18 00:54:06;;;;;;;1.58;0.88;;;;;;;5.10;70.95;99238.91;6311760;28;20059;-72
2022/02/18 00:57:07;;;;;;;9.57;1.58;;;;;;;5.02;70.43;99235.00;6278379;28;20048;-72
2022/02/18 01:00:10;;;;;;;2.97;0.93;;;;;;;5.05;69.72;99244.34;6311731;28;20052;-72
2022/02/18 01:03:14;;;;;;;5.35;1.15;;;;;;;4.95;70.41;99246.53;6295991;28;20480;-72
2022/02/18 01:06:15;;;;;;;6.45;1.55;;;;;;;4.94;69.02;99244.03;6294856;28;20433;-72
2022/02/18 01:09:16;;;;;;;4.97;1.10;;;;;;;4.96;68.58;99256.00;6278277;28;20048;-72
2022/02/18 01:12:17;;;;;;;3.85;1.15;;;;;;;4.95;69.28;99259.47;6294800;28;20040;-72
2022/02/18 01:15:18;;;;;;;2.55;1.00;;;;;;;4.89;69.11;99283.03;6294825;28;20041;-73
2022/02/18 01:18:21;;;;;;;6.82;1.10;;;;;;;4.96;68.43;99275.81;6295926;28;20048;-72
2022/02/18 01:21:21;;;;;;;4.35;0.93;;;;;;;4.89;68.28;99284.81;6294620;28;20505;-71
2022/02/18 01:24:22;;;;;;;2.50;0.95;;;;;;;4.92;67.45;99282.91;6278044;28;20040;-72
2022/02/18 01:27:24;;;;;;;4.45;1.10;;;;;;;4.86;68.29;99288.38;6277971;28;20052;-72
2022/02/18 01:30:26;;;;;;;3.78;1.42;;;;;;;4.82;67.83;99282.53;6278021;28;20072;-72
2022/02/18 01:33:27;;;;;;;4.78;1.20;;;;;;;4.84;67.52;99288.44;6294501;28;20040;-72
2022/02/18 01:36:28;;;;;;;4.75;1.10;;;;;;;4.81;67.09;99287.75;6277926;28;20473;-72
2022/02/18 01:39:29;;;;;;;1.67;1.17;;;;;;;4.88;66.34;99283.13;6294362;28;20056;-72
2022/02/18 01:42:30;;;;;;;4.10;1.15;;;;;;;4.92;66.80;99292.38;6295617;28;20499;-72
2022/02/18 01:45:31;;;;;;;3.58;1.17;;;;;;;4.90;66.99;99296.81;6295588;28;20051;-72
2022/02/18 01:48:32;;;;;;;3.72;1.40;;;;;;;4.85;67.38;99299.63;6315741;28;20114;-72
2022/02/18 01:51:33;;;;;;;8.20;1.30;;;;;;;4.86;66.90;99314.22;6299270;28;20041;-72
2022/02/18 01:54:34;;;;;;;6.60;1.30;;;;;;;4.82;67.25;99303.19;6298963;28;20049;-72
2022/02/18 01:57:34;;;;;;;8.57;1.40;;;;;;;4.81;67.47;99303.28;6299184;28;20040;-72
2022/02/18 02:00:35;;;;;;;5.55;1.52;;;;;;;4.62;67.77;99306.75;6298736;28;20142;-72
2022/02/18 02:03:37;;;;;;;5.18;1.30;;;;;;;4.69;67.36;99298.69;6299946;28;20065;-68
2022/02/18 02:06:39;;;;;;;5.00;1.38;;;;;;;4.71;67.28;99304.63;6299227;28;20091;-72
2022/02/18 02:09:40;;;;;;;2.95;1.23;;;;;;;4.64;66.49;99315.25;6300063;28;20036;-72
2022/02/18 02:12:51;;;;;;;5.50;1.30;;;;;;;4.76;66.49;99323.34;6298623;28;20054;-72
2022/02/18 02:15:51;;;;;;;3.55;1.13;;;;;;;4.67;65.77;99329.78;6298615;28;20040;-73
2022/02/18 02:18:52;;;;;;;4.80;1.13;;;;;;;4.70;66.11;99337.41;6299742;28;20063;-72
2022/02/18 02:21:55;;;;;;;3.83;1.17;;;;;;;4.77;66.38;99361.19;6298314;28;20041;-69
2022/02/18 02:24:57;;;;;;;3.42;1.20;;;;;;;4.63;66.45;99349.78;6298353;28;20058;-72
2022/02/18 02:27:57;;;;;;;7.10;1.50;;;;;;;4.77;65.73;99356.03;6298351;28;20101;-72
2022/02/18 02:30:58;;;;;;;4.63;1.35;;;;;;;4.69;66.98;99351.22;6299401;28;20301;-69
2022/02/18 02:33:59;;;;;;;4.88;1.23;;;;;;;4.70;68.18;99352.91;6298032;28;20066;-72
2022/02/18 02:37:00;;;;;;;5.47;1.45;;;;;;;4.62;68.63;99361.00;6298276;28;20045;-69
2022/02/18 02:40:01;;;;;;;2.25;1.15;;;;;;;4.51;70.11;99367.59;6298983;28;20056;-72
2022/02/18 02:43:02;;;;;;;9.10;1.23;;;;;;;4.38;71.12;99367.34;6299082;28;20559;-72
2022/02/18 02:46:03;;;;;;;2.92;1.38;;;;;;;4.29;71.67;99371.19;6298945;28;20106;-68
2022/02/18 02:49:04;;;;;;;3.75;1.23;;;;;;;4.25;72.06;99372.22;6297938;28;20550;-69
2022/02/18 02:52:05;;;;;;;9.73;1.67;;;;;;;4.05;72.70;99367.97;6297782;28;20074;-69
2022/02/18 02:55:08;;;;;;;5.65;1.38;;;;;;;3.99;73.59;99369.06;6297639;28;20044;-69
2022/02/18 02:58:09;;;;;;;6.65;1.17;;;;;;;3.92;74.11;99367.69;6296560;28;20132;-69
2022/02/18 03:01:09;;;;;;;6.05;1.55;;;;;;;3.87;73.43;99374.81;6297507;28;20037;-69
2022/02/18 03:04:10;;;;;;;6.50;1.60;;;;;;;4.00;73.42;99378.50;6298661;28;20056;-69
2022/02/18 03:07:11;;;;;;;4.53;1.27;;;;;;;4.06;73.20;99379.97;6297493;28;20463;-69
2022/02/18 03:10:12;;;;;;;7.07;1.45;;;;;;;4.04;74.46;99389.53;6298626;28;20139;-69
2022/02/18 03:13:13;;;;;;;8.60;1.73;;;;;;;3.97;75.11;99393.28;6297268;28;20045;-72
2022/02/18 03:16:16;;;;;;;4.90;1.40;;;;;;;3.98;75.59;99400.13;6263891;28;20491;-72
2022/02/18 03:19:16;;;;;;;7.95;2.03;;;;;;;4.01;76.15;99407.72;6299020;28;20052;-69
2022/02/18 03:22:17;;;;;;;7.85;1.88;;;;;;;3.97;76.81;99413.94;6298595;28;20040;-69
2022/02/18 03:25:18;;;;;;;10.77;1.75;;;;;;;3.98;77.08;99416.47;6280266;28;20396;-69
2022/02/18 03:28:19;;;;;;;8.43;1.65;;;;;;;3.96;78.11;99418.28;6298121;28;20044;-69
2022/02/18 03:31:20;;;;;;;8.20;2.33;;;;;;;3.86;79.73;99426.47;6298007;28;20048;-69
2022/02/18 03:34:22;;;;;;;8.07;2.50;;;;;;;3.75;81.38;99422.63;6279997;28;20367;-72
2022/02/18 03:37:22;;;;;;;7.05;1.95;;;;;;;3.70;82.65;99423.72;6280042;28;20045;-72
2022/02/18 03:40:23;;;;;;;3.58;1.15;;;;;;;3.59;83.74;99422.44;6296705;28;20102;-69
2022/02/18 03:43:24;;;;;;;8.30;2.20;;;;;;;3.68;84.30;99425.53;6296597;28;20052;-68
2022/02/18 03:46:25;;;;;;;9.32;2.67;;;;;;;3.72;84.50;99427.06;6297713;28;20047;-69
2022/02/18 03:49:26;;;;;;;15.05;3.03;;;;;;;3.69;84.94;99420.31;6297593;28;20040;-69
2022/02/18 03:52:27;;;;;;;9.00;2.05;;;;;;;3.69;86.02;99430.63;6279856;28;20056;-69
2022/02/18 03:55:28;;;;;;;5.28;1.20;;;;;;;3.81;85.19;99422.34;6296306;28;20119;-69
2022/02/18 03:58:29;;;;;;;6.68;2.08;;;;;;;3.59;86.90;99437.91;6297439;28;20036;-69
2022/02/18 04:01:30;;;;;;;10.70;2.03;;;;;;;3.59;87.32;99445.66;6296098;28;20059;-69
2022/02/18 04:04:33;;;;;;;5.88;2.05;;;;;;;3.64;87.28;99442.88;6296153;28;20044;-69
2022/02/18 04:07:34;;;;;;;6.28;1.60;;;;;;;3.38;89.62;99444.81;6296481;28;20044;-68
2022/02/18 04:10:36;;;;;;;3.92;1.15;;;;;;;3.42;89.67;99445.53;6296929;28;20044;-69
2022/02/18 04:13:37;;;;;;;6.27;1.50;;;;;;;3.38;90.39;99449.97;6296044;28;20055;-69
2022/02/18 04:16:37;;;;;;;8.85;1.90;;;;;;;3.50;89.85;99455.50;6296943;28;20273;-69
2022/02/18 04:19:38;;;;;;;5.93;1.60;;;;;;;3.43;90.56;99453.19;6296994;28;20048;-69
2022/02/18 04:22:39;;;;;;;8.70;1.48;;;;;;;3.37;90.38;99455.19;6295628;28;20044;-68
2022/02/18 04:25:40;;;;;;;6.80;1.70;;;;;;;3.33;90.64;99463.94;6297262;28;20059;-69
2022/02/18 04:28:41;;;;;;;7.38;1.58;;;;;;;3.35;90.57;99465.56;6297132;28;20044;-68
2022/02/18 04:31:42;;;;;;;8.20;2.63;;;;;;;3.50;90.06;99477.00;6295575;28;20407;-68
2022/02/18 04:34:43;;;;;;;10.25;2.20;;;;;;;3.29;90.63;99473.53;6296436;28;20044;-69
2022/02/18 04:37:44;;;;;;;5.43;1.92;;;;;;;3.32;90.17;99483.75;6295472;28;20040;-69
2022/02/18 04:40:44;;;;;;;9.25;3.40;;;;;;;3.46;88.96;99490.06;6295180;28;20052;-69
2022/02/18 04:43:45;;;;;;;9.07;3.67;;;;;;;3.39;89.40;99490.31;6278644;28;20060;-69
2022/02/18 04:46:46;;;;;;;14.68;4.57;;;;;;;3.45;88.95;99490.97;6296318;28;20048;-69
2022/02/18 04:49:47;;;;;;;8.48;3.28;;;;;;;3.37;89.73;99501.59;6296409;28;20036;-68
2022/02/18 04:52:48;;;;;;;7.53;3.05;;;;;;;3.39;89.95;99503.22;6295237;28;20051;-69
2022/02/18 04:55:48;;;;;;;7.10;1.50;;;;;;;3.16;91.90;99504.13;6294860;28;20544;-69
2022/02/18 04:58:49;;;;;;;7.68;2.30;;;;;;;3.18;92.02;99509.22;6295165;28;20505;-69
2022/02/18 05:01:50;;;;;;;7.68;1.65;;;;;;;3.22;92.26;99514.19;6278366;28;20060;-69
2022/02/18 05:04:51;;;;;;;4.50;2.03;;;;;;;3.27;91.99;99508.03;6295048;28;20049;-69
2022/02/18 05:07:51;;;;;;;12.18;4.43;;;;;;;3.19;92.34;99501.44;6295979;28;20047;-69
2022/02/18 05:10:52;;;;;;;9.13;3.97;;;;;;;3.25;92.24;99505.50;6261880;28;20041;-69
2022/02/18 05:13:53;;;;;;;12.93;4.68;;;;;;;3.13;93.96;99503.41;6278389;28;20500;-69
2022/02/18 05:16:54;;;;;;;8.00;2.08;;;;;;;3.09;94.27;99505.28;6278306;28;20051;-72
2022/02/18 05:19:55;;;;;;;5.10;1.77;;;;;;;2.83;94.89;99514.00;6294848;28;20476;-72
2022/02/18 05:22:57;;;;;;;3.28;1.30;;;;;;;3.02;94.04;99519.28;6298392;28;20475;-72
2022/02/18 05:25:58;;;;;;;;;;;;;;;3.18;92.26;99512.66;6300218;28;20063;-72
2022/02/18 05:28:59;;;;;;;2.88;1.17;;;;;;;3.18;91.95;99522.97;6283478;28;20371;-72
2022/02/18 05:32:00;;;;;;;4.07;1.27;;;;;;;3.13;92.50;99519.72;6300965;28;20124;-72
2022/02/18 05:35:01;;;;;;;2.50;1.20;;;;;;;3.01;93.55;99518.47;6283060;28;20048;-72
2022/02/18 05:38:02;;;;;;;3.25;1.10;;;;;;;3.21;92.36;99522.00;6299450;28;20413;-72
2022/02/18 05:41:03;;;;;;;7.35;2.00;;;;;;;3.20;92.37;99530.63;6282743;28;20062;-72
2022/02/18 05:44:04;;;;;;;3.63;1.42;;;;;;;3.10;92.66;99530.16;6300537;28;20127;-73
2022/02/18 05:47:05;;;;;;;6.93;1.70;;;;;;;2.95;93.85;99541.06;6282865;28;20048;-72
2022/02/18 05:50:09;;;;;;;3.50;1.40;;;;;;;2.84;94.81;99546.59;6299237;28;20465;-73
2022/02/18 05:53:10;;;;;;;2.53;1.40;;;;;;;2.98;93.42;99546.09;6300379;28;20048;-73
2022/02/18 05:56:11;;;;;;;3.28;1.50;;;;;;;3.09;92.45;99558.56;6300220;28;20658;-73
2022/02/18 05:59:12;;;;;;;3.70;1.58;;;;;;;3.16;91.96;99568.59;6299175;28;20089;-73
2022/02/18 06:02:13;;;;;;;5.57;1.95;;;;;;;3.12;91.62;99576.50;6298819;28;20420;-73
2022/02/18 06:05:13;;;;;;;23.20;7.50;;;;;;;3.13;92.05;99593.63;6299979;28;20072;-73
2022/02/18 06:08:15;;;;;;;39.75;17.40;;;;;;;3.31;90.69;99607.56;6298865;28;20055;-73
2022/02/18 06:11:15;;;;;;;32.33;13.43;;;;;;;3.40;89.75;99618.38;6299958;28;20046;-73
2022/02/18 06:14:16;;;;;;;25.48;8.80;;;;;;;3.37;89.54;99622.81;6298714;28;20048;-69
2022/02/18 06:17:17;;;;;;;4.78;2.58;;;;;;;3.25;91.35;99639.56;6281855;28;20045;-69
2022/02/18 06:20:21;;;;;;;3.92;1.83;;;;;;;3.14;92.93;99658.03;6299740;28;20059;-72
2022/02/18 06:23:25;;;;;;;3.70;1.50;;;;;;;3.06;93.48;99666.94;6299528;28;20506;-73
2022/02/18 06:26:26;;;;;;;8.07;2.72;;;;;;;3.10;93.60;99656.47;6298577;28;20040;-73
2022/02/18 06:29:27;;;;;;;9.50;5.20;;;;;;;3.23;92.81;99654.25;6281625;28;20360;-69
2022/02/18 06:32:28;;;;;;;9.90;4.57;;;;;;;3.31;91.50;99641.94;6299607;28;20538;-70
2022/02/18 06:35:29;;;;;;;2.90;1.75;;;;;;;3.19;92.18;99637.22;6299436;28;20047;-70
2022/02/18 06:38:31;;;;;;;2.72;1.48;;;;;;;3.39;91.57;99629.59;6281499;28;20048;-70
2022/02/18 06:41:31;;;;;;;5.25;1.38;;;;;;;3.54;90.04;99633.34;6295132;28;20415;-73
2022/02/18 06:44:32;;;;;;;9.27;2.13;;;;;;;3.73;88.47;99632.63;6274678;28;20073;-72
2022/02/18 06:47:33;;;;;;;3.80;1.63;;;;;;;3.89;86.92;99625.94;6273023;28;20056;-73
2022/02/18 06:50:35;;;;;;;2.30;1.63;;;;;;;4.04;85.52;99627.06;6273237;28;20086;-70
2022/02/18 06:53:37;;;;;;;3.33;1.33;;;;;;;4.17;83.55;99617.06;6273155;28;20118;-73
2022/02/18 06:56:38;;;;;;;3.08;1.40;;;;;;;4.33;82.03;99617.25;6256412;28;20045;-70
2022/02/18 06:59:39;;;;;;;7.47;2.80;;;;;;;4.49;81.67;99630.34;6273991;28;20044;-69
2022/02/18 07:02:40;;;;;;;7.53;2.38;;;;;;;4.60;80.66;99648.84;6273846;28;20041;-70
2022/02/18 07:05:41;;;;;;;4.35;1.80;;;;;;;4.70;79.29;99646.69;6272816;28;20052;-70
2022/02/18 07:08:42;;;;;;;4.22;1.35;;;;;;;4.80;78.24;99660.91;6272551;28;20045;-73
2022/02/18 07:11:43;;;;;;;4.40;1.35;;;;;;;4.95;76.33;99656.78;6272645;28;20399;-70
2022/02/18 07:14:44;;;;;;;6.80;1.63;;;;;;;5.04;77.44;99677.94;6272587;28;20056;-69
2022/02/18 07:17:45;;;;;;;3.95;1.45;;;;;;;5.20;78.85;99685.00;6255664;28;20041;-73
2022/02/18 07:20:46;;;;;;;3.08;1.25;;;;;;;5.29;78.43;99691.50;6255694;28;20075;-73
2022/02/18 07:23:47;;;;;;;9.45;2.10;;;;;;;5.36;79.43;99692.91;6255458;28;20484;-70
2022/02/18 07:26:48;;;;;;;4.50;1.90;;;;;;;5.63;78.36;99699.41;6255580;28;20072;-72
2022/02/18 07:29:49;;;;;;;4.47;1.75;;;;;;;5.68;76.26;99703.53;6255736;28;20318;-73
2022/02/18 07:32:50;;;;;;;4.85;2.15;;;;;;;5.81;75.57;99707.22;6255471;28;20492;-73
2022/02/18 07:35:51;;;;;;;8.40;2.67;;;;;;;5.98;75.79;99709.06;6271708;28;20132;-73
2022/02/18 07:38:52;;;;;;;8.98;2.63;;;;;;;6.24;73.72;99706.06;6255343;28;20045;-70
2022/02/18 07:41:53;;;;;;;3.70;1.92;;;;;;;6.42;73.07;99719.88;6272838;28;20553;-69
2022/02/18 07:44:54;;;;;;;5.22;2.20;;;;;;;6.51;73.45;99709.97;6270896;28;20080;-70
2022/02/18 07:47:56;;;;;;;6.75;2.35;;;;;;;6.76;72.47;99705.22;6272793;28;20045;-73
2022/02/18 07:51:03;;;;;;;7.28;1.88;;;;;;;6.95;72.38;99710.28;6272843;28;20095;-73
2022/02/18 07:54:04;;;;;;;3.60;1.70;;;;;;;7.04;71.63;99708.97;6255274;28;20048;-73
2022/02/18 07:57:06;;;;;;;4.53;1.70;;;;;;;7.00;68.69;99707.44;6272382;28;20373;-74
2022/02/18 08:00:08;;;;;;;4.38;1.65;;;;;;;7.02;68.95;99709.06;6272490;28;20033;-70
2022/02/18 08:03:09;;;;;;;5.97;1.65;;;;;;;7.00;68.54;99705.72;6271199;28;20056;-70
2022/02/18 08:06:10;;;;;;;3.35;1.55;;;;;;;7.01;67.27;99707.38;6254816;28;20033;-70
2022/02/18 08:09:11;;;;;;;5.03;1.60;;;;;;;7.30;67.88;99704.19;6254396;28;20045;-70
2022/02/18 08:12:12;;;;;;;7.20;1.80;;;;;;;7.39;66.12;99708.88;6270990;28;20520;-71
2022/02/18 08:15:13;;;;;;;1.52;1.30;;;;;;;7.54;66.72;99700.28;6238047;28;20055;-70
2022/02/18 08:18:19;;;;;;;11.95;2.45;;;;;;;7.85;64.14;99711.59;6254068;28;20499;-70
2022/02/18 08:21:20;;;;;;;3.33;1.48;;;;;;;7.81;64.70;99728.28;6271073;28;20037;-70
2022/02/18 08:24:21;;;;;;;5.18;1.33;;;;;;;7.95;63.16;99730.09;6271719;28;20052;-70
2022/02/18 08:27:22;;;;;;;3.08;1.67;;;;;;;8.19;63.00;99726.13;6270697;28;20043;-73
2022/02/18 08:30:23;;;;;;;3.50;1.48;;;;;;;7.89;62.82;99733.88;6254029;28;20140;-73
2022/02/18 08:33:24;;;;;;;5.13;1.70;;;;;;;8.11;63.13;99725.72;6271816;28;20048;-73
2022/02/18 08:36:24;;;;;;;5.20;1.48;;;;;;;8.41;63.55;99728.38;6253968;28;20052;-73
2022/02/18 08:39:25;;;;;;;7.22;1.80;;;;;;;8.87;61.10;99736.13;6270158;28;20388;-73
2022/02/18 08:42:26;;;;;;;4.20;1.35;;;;;;;8.53;59.52;99734.66;6221000;28;20052;-71
2022/02/18 08:45:28;;;;;;;5.47;1.70;;;;;;;8.66;59.42;99738.19;6270343;28;20102;-70
2022/02/18 08:48:29;;;;;;;4.43;2.00;;;;;;;8.94;58.22;99749.59;6270302;28;20041;-70
2022/02/18 08:51:31;;;;;;;2.45;1.40;;;;;;;8.90;56.26;99747.28;6270163;28;20492;-73
2022/02/18 08:54:32;;;;;;;6.07;2.08;;;;;;;9.19;56.58;99759.38;6237537;28;20092;-70
2022/02/18 08:57:32;;;;;;;3.60;1.42;;;;;;;8.74;54.61;99757.75;6269049;28;20462;-70
2022/02/18 09:00:34;;;;;;;4.72;1.70;;;;;;;9.10;55.83;99759.09;6271268;28;20399;-70
2022/02/18 09:03:36;;;;;;;8.30;2.05;;;;;;;9.24;56.18;99757.34;6270002;28;20239;-70
2022/02/18 09:06:37;;;;;;;4.47;1.53;;;;;;;9.53;54.80;99764.31;6269974;28;20048;-70
2022/02/18 09:09:37;;;;;;;5.45;1.75;;;;;;;9.60;53.75;99760.41;6269935;28;20140;-70
2022/02/18 09:12:40;;;;;;;6.57;1.63;;;;;;;9.54;53.07;99758.19;6270108;28;20403;-74
2022/02/18 09:15:41;;;;;;;3.90;1.40;;;;;;;9.69;52.83;99768.47;6271127;28;20045;-74
2022/02/18 09:18:42;;;;;;;2.75;1.80;;;;;;;9.76;50.52;99760.28;6271023;28;20036;-70
2022/02/18 09:21:45;;;;;;;8.15;1.20;;;;;;;9.79;49.95;99767.94;6270973;28;20037;-71
2022/02/18 09:24:46;;;;;;;5.22;1.40;;;;;;;9.80;49.48;99766.97;6270959;28;20056;-70
2022/02/18 09:27:46;;;;;;;4.25;1.63;;;;;;;9.81;49.88;99779.91;6269760;28;20111;-70
2022/02/18 09:30:48;;;;;;;2.17;1.15;;;;;;;10.19;50.04;99779.28;6269706;28;20056;-71
2022/02/18 09:33:50;;;;;;;4.70;1.90;;;;;;;10.06;48.57;99775.78;6237089;28;20041;-70
2022/02/18 09:36:52;;;;;;;4.70;2.45;;;;;;;10.15;47.59;99780.44;6269608;28;20772;-71
2022/02/18 09:39:53;;;;;;;5.25;1.73;;;;;;;10.43;48.03;99770.84;6270394;28;20052;-73
2022/02/18 09:42:55;;;;;;;6.07;1.70;;;;;;;10.09;51.65;99773.81;6269554;28;20048;-70
2022/02/18 09:45:57;;;;;;;8.07;1.60;;;;;;;10.60;51.90;99774.97;6269599;28;20037;-70
2022/02/18 09:48:58;;;;;;;7.50;1.65;;;;;;;10.68;47.81;99783.94;6269418;28;20049;-70
2022/02/18 09:52:00;;;;;;;4.93;1.65;;;;;;;10.82;47.97;99770.00;6269217;28;20053;-73
2022/02/18 09:55:01;;;;;;;3.47;1.20;;;;;;;10.44;47.08;99754.28;6269440;28;20061;-74
2022/02/18 09:58:02;;;;;;;9.65;2.00;;;;;;;10.45;47.65;99761.16;6269386;28;20400;-74
2022/02/18 10:01:03;;;;;;;4.65;1.20;;;;;;;10.69;46.98;99774.38;6270502;28;20049;-74
2022/02/18 10:04:04;;;;;;;1.77;1.00;;;;;;;10.62;45.57;99781.75;6269213;28;20056;-74
2022/02/18 10:07:06;;;;;;;3.42;1.35;;;;;;;10.80;45.83;99782.31;6271089;28;20048;-73
2022/02/18 10:10:14;;;;;;;5.00;1.88;;;;;;;11.11;43.92;99782.03;6307301;28;20099;-74
2022/02/18 10:13:36;;;;;;;6.07;1.30;;;;;;;11.30;43.78;99779.84;6273832;28;20079;-73
2022/02/18 10:16:37;;;;;;;6.27;1.50;;;;;;;10.98;42.78;99789.88;6274963;28;20037;-74
2022/02/18 10:19:52;;;;;;;4.80;1.60;;;;;;;11.29;42.28;99797.28;6273673;28;20052;-73
2022/02/18 10:22:59;;;;;;;4.03;1.35;;;;;;;11.15;42.43;99796.56;6273645;28;20064;-70
2022/02/18 10:26:02;;;;;;;4.03;1.83;;;;;;;11.57;42.61;99782.34;6273556;28;20060;-73
2022/02/18 10:29:08;;;;;;;7.15;2.00;;;;;;;11.92;41.37;99786.88;6274582;28;20106;-74
2022/02/18 10:32:14;;;;;;;4.28;1.80;;;;;;;12.22;42.25;99786.50;6306903;28;20060;-74
2022/02/18 10:35:17;;;;;;;9.63;3.60;;;;;;;11.85;41.95;99799.53;6274441;28;20106;-72
2022/02/18 10:38:18;;;;;;;5.00;1.98;;;;;;;11.98;42.15;99791.69;6274607;28;20040;-74
2022/02/18 10:41:23;;;;;;;5.75;2.03;;;;;;;11.99;42.47;99785.53;6256245;28;20565;-71
2022/02/18 10:44:31;;;;;;;7.40;2.30;;;;;;;12.01;42.45;99772.34;6273179;28;20056;-71
2022/02/18 10:47:32;;;;;;;6.13;1.85;;;;;;;12.13;41.75;99781.94;6272887;28;20388;-70
2022/02/18 10:50:34;;;;;;;4.55;1.30;;;;;;;12.14;41.34;99774.91;6273172;28;20242;-71
2022/02/18 10:53:40;;;;;;;6.55;1.38;;;;;;;11.97;38.75;99769.13;6289759;28;20119;-74
2022/02/18 10:56:40;;;;;;;2.13;1.30;;;;;;;12.33;38.16;99767.41;6289589;28;20061;-71
2022/02/18 10:59:42;;;;;;;5.75;1.15;;;;;;;11.76;39.40;99770.63;6256292;28;20041;-70
2022/02/18 11:02:50;;;;;;;3.42;1.42;;;;;;;11.81;38.64;99771.94;6273820;28;20037;-71
2022/02/18 11:05:51;;;;;;;7.50;2.17;;;;;;;12.11;39.39;99760.28;6272693;28;20049;-70
2022/02/18 11:08:54;;;;;;;7.78;2.28;;;;;;;12.22;40.00;99769.97;6273669;28;20072;-73
2022/02/18 11:11:56;;;;;;;2.80;1.05;;;;;;;11.77;39.09;99777.50;6272599;28;20114;-73
2022/02/18 11:14:57;;;;;;;4.15;1.40;;;;;;;12.15;37.23;99766.97;6255824;28;20731;-70
2022/02/18 11:17:58;;;;;;;4.23;1.10;;;;;;;12.42;36.92;99773.75;6272573;28;20120;-70
2022/02/18 11:21:00;;;;;;;4.65;1.13;;;;;;;12.21;37.30;99774.38;6271403;28;20242;-70
2022/02/18 11:24:04;;;;;;;5.63;1.40;;;;;;;12.36;36.25;99768.97;6272231;28;20484;-74
2022/02/18 11:27:05;;;;;;;3.83;1.27;;;;;;;12.52;37.02;99764.28;6272187;28;20041;-70
2022/02/18 11:30:07;;;;;;;5.15;1.60;;;;;;;12.54;37.45;99753.69;6273233;28;20047;-70
2022/02/18 11:33:11;;;;;;;3.78;1.17;;;;;;;12.40;37.07;99759.97;6272023;28;20049;-71
2022/02/18 11:36:50;;;;;;;6.10;1.70;;;;;;;12.41;34.69;99756.38;6288594;28;20051;-70
2022/02/18 11:40:28;;;;;;;4.82;0.98;;;;;;;11.99;35.66;99756.78;6272648;28;20060;-70
2022/02/18 11:43:33;;;;;;;3.28;1.30;;;;;;;12.29;34.98;99747.63;6272893;28;20495;-73
2022/02/18 11:46:34;;;;;;;9.35;1.05;;;;;;;12.13;34.33;99744.47;6272898;28;20128;-70
2022/02/18 11:49:35;;;;;;;5.10;1.38;;;;;;;12.14;35.40;99751.38;6271659;28;20052;-70
2022/02/18 11:52:49;;;;;;;2.67;1.35;;;;;;;12.42;35.62;99753.66;6271515;28;20260;-70
2022/02/18 11:55:53;;;;;;;5.75;1.50;;;;;;;11.93;34.68;99753.75;6271548;28;20423;-74
2022/02/18 11:59:03;;;;;;;4.32;1.50;;;;;;;12.37;35.24;99754.94;6271329;28;20389;-73
2022/02/18 12:02:07;;;;;;;7.82;1.20;;;;;;;12.32;34.71;99747.44;6272503;28;20068;-74
2022/02/18 12:05:12;;;;;;;3.53;1.00;;;;;;;12.52;35.16;99752.97;6272409;28;20472;-72
2022/02/18 12:08:28;;;;;;;7.47;2.88;;;;;;;12.54;33.96;99749.31;6272485;28;20551;-70
2022/02/18 12:11:43;;;;;;;3.63;1.13;;;;;;;12.87;35.01;99753.81;6272193;28;20068;-71
2022/02/18 12:14:50;;;;;;;5.22;1.02;;;;;;;12.60;35.08;99733.16;6272328;28;20080;-74
2022/02/18 12:18:02;;;;;;;2.10;0.90;;;;;;;12.53;35.54;99739.78;6272093;28;20044;-74
2022/02/18 12:21:07;;;;;;;3.70;1.80;;;;;;;12.65;34.63;99741.47;6272052;28;20507;-70
2022/02/18 12:24:38;;;;;;;4.68;1.27;;;;;;;12.56;34.61;99759.63;6271852;28;20040;-73
2022/02/18 12:27:39;;;;;;;6.55;2.88;;;;;;;12.38;35.01;99757.44;6271892;28;20044;-74
2022/02/18 12:30:41;;;;;;;6.00;2.30;;;;;;;12.52;36.16;99740.75;6270643;28;20077;-73
2022/02/18 12:33:44;;;;;;;7.80;1.65;;;;;;;12.66;35.69;99747.53;6237949;28;20056;-73
2022/02/18 12:36:44;;;;;;;6.38;1.95;;;;;;;12.65;35.83;99748.50;6271729;28;20045;-70
2022/02/18 12:39:54;;;;;;;12.43;2.55;;;;;;;12.95;35.76;99747.13;6253843;28;20510;-71
2022/02/18 12:42:59;;;;;;;5.20;1.60;;;;;;;12.57;35.91;99753.47;6271502;28;20452;-74
2022/02/18 12:46:02;;;;;;;9.07;2.30;;;;;;;12.90;36.36;99753.56;6253827;28;20053;-74
2022/02/18 12:49:03;;;;;;;4.75;1.15;;;;;;;12.07;37.27;99748.38;6253539;28;20060;-74
2022/02/18 12:52:05;;;;;;;5.65;2.58;;;;;;;12.84;37.42;99745.34;6270169;28;20053;-70
2022/02/18 12:55:25;;;;;;;11.75;2.97;;;;;;;13.10;37.53;99752.06;6271285;28;20064;-70
2022/02/18 12:58:25;;;;;;;9.73;2.95;;;;;;;13.22;38.98;99742.44;6271427;28;20507;-70
2022/02/18 13:01:28;;;;;;;8.35;2.10;;;;;;;13.05;37.44;99745.50;6270077;28;20048;-70
2022/02/18 13:04:29;;;;;;;4.43;1.58;;;;;;;12.88;38.97;99737.13;6269876;28;20048;-70
2022/02/18 13:07:39;;;;;;;7.45;2.03;;;;;;;12.91;39.55;99733.47;6271248;28;20049;-70
2022/02/18 13:10:40;;;;;;;7.82;1.92;;;;;;;12.87;39.47;99735.47;6271092;28;20061;-67
2022/02/18 13:13:42;;;;;;;7.60;1.60;;;;;;;12.63;41.19;99721.63;6271042;28;20052;-67
2022/02/18 13:16:44;;;;;;;11.90;1.88;;;;;;;12.46;41.81;99726.31;6270043;28;20499;-73
2022/02/18 13:19:45;;;;;;;8.18;2.00;;;;;;;12.80;41.38;99726.41;6269719;28;20053;-74
2022/02/18 13:22:46;;;;;;;6.70;1.85;;;;;;;12.61;40.93;99726.13;6269749;28;20503;-74
2022/02/18 13:25:55;;;;;;;5.43;1.75;;;;;;;12.43;40.09;99731.75;6269494;28;20098;-74
2022/02/18 13:28:59;;;;;;;4.68;2.10;;;;;;;12.39;41.92;99730.31;6286350;28;20053;-75
2022/02/18 13:32:00;;;;;;;8.30;2.17;;;;;;;12.47;41.76;99733.19;6270859;28;20044;-74
2022/02/18 13:35:01;;;;;;;9.77;1.95;;;;;;;12.61;43.25;99732.19;6269434;28;20572;-73
2022/02/18 13:38:02;;;;;;;8.65;1.40;;;;;;;12.37;42.73;99731.38;6253148;28;20567;-74
2022/02/18 13:41:09;;;;;;;7.97;1.65;;;;;;;12.19;43.56;99730.94;6252960;28;20049;-73
2022/02/18 13:44:14;;;;;;;14.32;2.17;;;;;;;12.23;44.22;99727.16;6274666;28;20041;-74
2022/02/18 13:47:15;;;;;;;6.85;2.03;;;;;;;12.19;43.28;99725.72;6274541;28;20071;-70
2022/02/18 13:50:17;;;;;;;7.35;1.63;;;;;;;11.96;42.76;99733.44;6275662;28;20776;-70
2022/02/18 13:53:19;;;;;;;8.43;2.10;;;;;;;11.96;43.71;99730.81;6275404;28;20041;-73
2022/02/18 13:56:25;;;;;;;7.80;2.08;;;;;;;12.12;42.21;99733.19;6274396;28;20048;-73
2022/02/18 13:59:29;;;;;;;6.07;1.67;;;;;;;12.13;44.53;99740.09;6274387;28;20044;-74
2022/02/18 14:02:30;;;;;;;7.80;2.30;;;;;;;11.91;43.17;99730.34;6275193;28;20068;-73
2022/02/18 14:05:31;;;;;;;9.32;2.35;;;;;;;11.95;44.40;99742.25;6257345;28;20049;-74
2022/02/18 14:08:32;;;;;;;8.25;2.33;;;;;;;11.88;43.76;99740.97;6275263;28;20052;-69
2022/02/18 14:11:33;;;;;;;9.30;2.40;;;;;;;11.79;43.99;99752.09;6290592;28;20052;-70
2022/02/18 14:14:34;;;;;;;8.20;2.17;;;;;;;11.87;43.93;99736.69;6273763;28;20047;-70
2022/02/18 14:17:38;;;;;;;8.93;2.38;;;;;;;11.74;44.30;99743.75;6275019;28;20041;-70
2022/02/18 14:20:38;;;;;;;8.93;2.72;;;;;;;11.75;43.92;99724.50;6273650;28;20252;-73
2022/02/18 14:23:46;;;;;;;7.85;2.28;;;;;;;11.60;45.09;99727.25;6257055;28;20095;-73
2022/02/18 14:26:48;;;;;;;5.30;1.70;;;;;;;11.55;44.65;99733.72;6274728;28;20091;-74